sensor_id;sensor_type;location;lat;lon;timestamp;pressure;altitude;pressure_sealevel;temperature;humidity
37298;BME280;30517;51.932;4.278;2022-11-03T00:02:34;101253.16;;;13.93;64.99
37298;BME280;30517;51.932;4.278;2022-11-03T00:05:15;101237.31;;;13.87;64.34
37298;BME280;30517;51.932;4.278;2022-11-03T00:08:14;101247.00;;;13.91;64.73
37298;BME280;30517;51.932;4.278;2022-11-03T00:11:12;101239.94;;;13.91;64.50
37298;BME280;30517;51.932;4.278;2022-11-03T00:13:53;101239.91;;;13.93;64.41
37298;BME280;30517;51.932;4.278;2022-11-03T00:16:34;101232.81;;;13.95;64.84
37298;BME280;30517;51.932;4.278;2022-11-03T00:19:15;101228.47;;;13.89;65.06
37298;BME280;30517;51.932;4.278;2022-11-03T00:21:56;101232.84;;;13.90;64.48
37298;BME280;30517;51.932;4.278;2022-11-03T00:24:40;101224.06;;;13.87;64.84
37298;BME280;30517;51.932;4.278;2022-11-03T00:27:20;101157.25;;;13.49;64.82
37298;BME280;30517;51.932;4.278;2022-11-03T00:30:01;101171.34;;;13.56;64.69
37298;BME280;30517;51.932;4.278;2022-11-03T00:32:42;101202.97;;;13.73;64.57
37298;BME280;30517;51.932;4.278;2022-11-03T00:35:23;101224.00;;;13.93;64.72
37298;BME280;30517;51.932;4.278;2022-11-03T00:38:04;101181.78;;;13.71;64.44
37298;BME280;30517;51.932;4.278;2022-11-03T00:40:44;101199.34;;;13.83;64.97
37298;BME280;30517;51.932;4.278;2022-11-03T00:43:26;101218.72;;;13.91;64.62
37298;BME280;30517;51.932;4.278;2022-11-03T00:46:09;101223.97;;;13.96;64.63
37298;BME280;30517;51.932;4.278;2022-11-03T00:48:50;101197.63;;;13.81;64.70
37298;BME280;30517;51.932;4.278;2022-11-03T00:51:31;101192.28;;;13.82;64.74
37298;BME280;30517;51.932;4.278;2022-11-03T00:54:13;101209.84;;;13.92;64.66
37298;BME280;30517;51.932;4.278;2022-11-03T00:56:53;101136.00;;;13.56;64.36
37298;BME280;30517;51.932;4.278;2022-11-03T00:59:34;101173.75;;;13.81;64.27
37298;BME280;30517;51.932;4.278;2022-11-03T01:02:15;101181.78;;;13.73;64.81
37298;BME280;30517;51.932;4.278;2022-11-03T01:04:56;101205.53;;;13.82;64.99
37298;BME280;30517;51.932;4.278;2022-11-03T01:07:55;101186.16;;;13.76;64.75
37298;BME280;30517;51.932;4.278;2022-11-03T01:10:36;101201.06;;;13.87;64.63
37298;BME280;30517;51.932;4.278;2022-11-03T01:13:17;101141.22;;;13.63;64.94
37298;BME280;30517;51.932;4.278;2022-11-03T01:15:58;101183.38;;;13.89;64.70
37298;BME280;30517;51.932;4.278;2022-11-03T01:18:39;101177.16;;;13.90;64.39
37298;BME280;30517;51.932;4.278;2022-11-03T01:21:19;101175.41;;;13.88;64.84
37298;BME280;30517;51.932;4.278;2022-11-03T01:24:02;101082.31;;;13.35;64.53
37298;BME280;30517;51.932;4.278;2022-11-03T01:26:43;101124.44;;;13.63;64.40
37298;BME280;30517;51.932;4.278;2022-11-03T01:29:23;101127.06;;;13.66;64.77
37298;BME280;30517;51.932;4.278;2022-11-03T01:32:05;101181.66;;;13.84;64.92
37298;BME280;30517;51.932;4.278;2022-11-03T01:34:46;101158.84;;;13.67;64.89
37298;BME280;30517;51.932;4.278;2022-11-03T01:37:26;101144.72;;;13.67;65.06
37298;BME280;30517;51.932;4.278;2022-11-03T01:40:07;101132.44;;;13.58;65.13
37298;BME280;30517;51.932;4.278;2022-11-03T01:42:48;101164.81;;;13.88;64.83
37298;BME280;30517;51.932;4.278;2022-11-03T01:45:29;101099.72;;;13.61;64.80
37298;BME280;30517;51.932;4.278;2022-11-03T01:48:11;101145.41;;;13.86;64.53
37298;BME280;30517;51.932;4.278;2022-11-03T01:50:52;101138.38;;;13.83;65.01
37298;BME280;30517;51.932;4.278;2022-11-03T01:53:34;101153.38;;;13.86;65.03
37298;BME280;30517;51.932;4.278;2022-11-03T01:56:16;101147.13;;;13.90;64.64
37298;BME280;30517;51.932;4.278;2022-11-03T01:58:57;101120.84;;;13.68;64.76
37298;BME280;30517;51.932;4.278;2022-11-03T02:01:38;101069.88;;;13.45;65.16
37298;BME280;30517;51.932;4.278;2022-11-03T02:04:26;101106.63;;;13.77;64.66
37298;BME280;30517;51.932;4.278;2022-11-03T02:07:27;101126.03;;;13.81;65.07
37298;BME280;30517;51.932;4.278;2022-11-03T02:10:10;101096.06;;;13.72;64.79
37298;BME280;30517;51.932;4.278;2022-11-03T02:12:51;101068.81;;;13.61;65.06
37298;BME280;30517;51.932;4.278;2022-11-03T02:15:32;101085.47;;;13.72;64.77
37298;BME280;30517;51.932;4.278;2022-11-03T02:18:16;101082.78;;;13.77;64.73
37298;BME280;30517;51.932;4.278;2022-11-03T02:21:10;101077.50;;;13.72;64.65
37298;BME280;30517;51.932;4.278;2022-11-03T02:24:11;101092.44;;;13.81;65.15
37298;BME280;30517;51.932;4.278;2022-11-03T02:26:55;101100.38;;;13.81;65.01
37298;BME280;30517;51.932;4.278;2022-11-03T02:29:36;101101.25;;;13.83;64.64
37298;BME280;30517;51.932;4.278;2022-11-03T02:32:22;101103.03;;;13.83;64.79
37298;BME280;30517;51.932;4.278;2022-11-03T02:35:22;101073.03;;;13.76;64.89
37298;BME280;30517;51.932;4.278;2022-11-03T02:38:08;101069.53;;;13.76;65.09
37298;BME280;30517;51.932;4.278;2022-11-03T02:40:53;101072.97;;;13.82;64.61
37298;BME280;30517;51.932;4.278;2022-11-03T02:43:37;101044.88;;;13.66;65.05
37298;BME280;30517;51.932;4.278;2022-11-03T02:46:19;101012.38;;;13.53;64.83
37298;BME280;30517;51.932;4.278;2022-11-03T02:49:01;101037.66;;;13.79;65.07
37298;BME280;30517;51.932;4.278;2022-11-03T02:51:41;101046.44;;;13.85;64.64
37298;BME280;30517;51.932;4.278;2022-11-03T02:54:25;101029.63;;;13.85;64.89
37298;BME280;30517;51.932;4.278;2022-11-03T02:57:13;101034.06;;;13.86;64.56
37298;BME280;30517;51.932;4.278;2022-11-03T03:00:00;101045.50;;;13.88;64.87
37298;BME280;30517;51.932;4.278;2022-11-03T03:03:00;101014.72;;;13.78;64.67
37298;BME280;30517;51.932;4.278;2022-11-03T03:05:46;101027.88;;;13.82;64.56
37298;BME280;30517;51.932;4.278;2022-11-03T03:08:30;101031.41;;;13.86;64.72
37298;BME280;30517;51.932;4.278;2022-11-03T03:11:12;101005.03;;;13.73;64.96
37298;BME280;30517;51.932;4.278;2022-11-03T03:13:53;101023.44;;;13.84;64.72
37298;BME280;30517;51.932;4.278;2022-11-03T03:16:41;100965.63;;;13.46;65.24
37298;BME280;30517;51.932;4.278;2022-11-03T03:22:23;101013.66;;;13.88;64.75
37298;BME280;30517;51.932;4.278;2022-11-03T03:28:14;100994.28;;;13.86;64.67
37298;BME280;30517;51.932;4.278;2022-11-03T03:30:59;100973.34;;;13.64;64.79
37298;BME280;30517;51.932;4.278;2022-11-03T03:33:41;101004.88;;;13.84;64.90
37298;BME280;30517;51.932;4.278;2022-11-03T03:36:25;100994.31;;;13.83;65.16
37298;BME280;30517;51.932;4.278;2022-11-03T03:39:10;100990.72;;;13.88;64.86
37298;BME280;30517;51.932;4.278;2022-11-03T03:41:55;100998.72;;;13.84;64.94
37298;BME280;30517;51.932;4.278;2022-11-03T03:44:38;100967.91;;;13.73;64.76
37298;BME280;30517;51.932;4.278;2022-11-03T03:47:22;100984.53;;;13.86;64.58
37298;BME280;30517;51.932;4.278;2022-11-03T03:50:05;100966.00;;;13.85;64.58
37298;BME280;30517;51.932;4.278;2022-11-03T03:52:47;100862.56;;;13.21;64.62
37298;BME280;30517;51.932;4.278;2022-11-03T03:55:38;100983.72;;;13.83;65.07
37298;BME280;30517;51.932;4.278;2022-11-03T03:58:19;100981.91;;;13.85;64.87
37298;BME280;30517;51.932;4.278;2022-11-03T04:01:00;100939.78;;;13.63;64.87
37298;BME280;30517;51.932;4.278;2022-11-03T04:03:41;100943.19;;;13.71;64.70
37298;BME280;30517;51.932;4.278;2022-11-03T04:06:22;100954.59;;;13.78;64.52
37298;BME280;30517;51.932;4.278;2022-11-03T04:09:02;100941.50;;;13.67;64.85
37298;BME280;30517;51.932;4.278;2022-11-03T04:11:43;100961.59;;;13.84;64.78
37298;BME280;30517;51.932;4.278;2022-11-03T04:14:42;100949.41;;;13.70;64.75
37298;BME280;30517;51.932;4.278;2022-11-03T04:17:45;100935.38;;;13.61;64.93
37298;BME280;30517;51.932;4.278;2022-11-03T04:20:45;100950.13;;;13.82;64.92
37298;BME280;30517;51.932;4.278;2022-11-03T04:23:44;100932.63;;;13.68;64.85
37298;BME280;30517;51.932;4.278;2022-11-03T04:26:26;100947.44;;;13.85;64.74
37298;BME280;30517;51.932;4.278;2022-11-03T04:29:08;100896.69;;;13.50;64.95
37298;BME280;30517;51.932;4.278;2022-11-03T04:31:50;100953.66;;;13.84;65.14
37298;BME280;30517;51.932;4.278;2022-11-03T04:34:31;100956.28;;;13.85;64.97
37298;BME280;30517;51.932;4.278;2022-11-03T04:37:12;100945.69;;;13.85;65.21
37298;BME280;30517;51.932;4.278;2022-11-03T04:39:59;100920.25;;;13.72;64.94
37298;BME280;30517;51.932;4.278;2022-11-03T04:42:41;100938.56;;;13.87;64.76
37298;BME280;30517;51.932;4.278;2022-11-03T04:45:26;100936.88;;;13.82;64.97
37298;BME280;30517;51.932;4.278;2022-11-03T04:48:20;100928.81;;;13.88;64.87
37298;BME280;30517;51.932;4.278;2022-11-03T04:51:16;100927.06;;;13.87;64.56
37298;BME280;30517;51.932;4.278;2022-11-03T04:54:01;100920.97;;;13.83;65.02
37298;BME280;30517;51.932;4.278;2022-11-03T04:56:42;100872.63;;;13.63;64.87
37298;BME280;30517;51.932;4.278;2022-11-03T04:59:23;100889.25;;;13.77;64.87
37298;BME280;30517;51.932;4.278;2022-11-03T05:02:09;100900.50;;;13.90;64.54
37298;BME280;30517;51.932;4.278;2022-11-03T05:04:51;100876.13;;;13.66;65.10
37298;BME280;30517;51.932;4.278;2022-11-03T05:07:33;100888.16;;;13.89;64.76
37298;BME280;30517;51.932;4.278;2022-11-03T05:10:18;100879.47;;;13.81;65.19
37298;BME280;30517;51.932;4.278;2022-11-03T05:13:00;100834.72;;;13.58;64.90
37298;BME280;30517;51.932;4.278;2022-11-03T05:15:42;100876.69;;;13.88;64.84
37298;BME280;30517;51.932;4.278;2022-11-03T05:18:28;100865.25;;;13.85;65.03
37298;BME280;30517;51.932;4.278;2022-11-03T05:21:18;100873.22;;;13.83;64.98
37298;BME280;30517;51.932;4.278;2022-11-03T05:25:55;100840.88;;;13.58;66.58
37298;BME280;30517;51.932;4.278;2022-11-03T05:28:41;100862.63;;;13.82;66.03
37298;BME280;30517;51.932;4.278;2022-11-03T05:31:27;100853.75;;;13.84;65.77
37298;BME280;30517;51.932;4.278;2022-11-03T05:34:34;100845.84;;;13.83;65.20
37298;BME280;30517;51.932;4.278;2022-11-03T05:37:28;100851.09;;;13.86;65.56
37298;BME280;30517;51.932;4.278;2022-11-03T05:40:22;100842.28;;;13.82;65.37
37298;BME280;30517;51.932;4.278;2022-11-03T05:43:03;100828.09;;;13.86;65.02
37298;BME280;30517;51.932;4.278;2022-11-03T05:45:45;100839.56;;;13.88;65.07
37298;BME280;30517;51.932;4.278;2022-11-03T05:48:34;100840.44;;;13.89;65.17
37298;BME280;30517;51.932;4.278;2022-11-03T05:54:00;100822.75;;;13.88;64.94
37298;BME280;30517;51.932;4.278;2022-11-03T05:56:41;100828.03;;;13.91;64.97
37298;BME280;30517;51.932;4.278;2022-11-03T05:59:25;100824.59;;;13.86;65.38
37298;BME280;30517;51.932;4.278;2022-11-03T06:02:23;100821.06;;;13.84;65.11
37298;BME280;30517;51.932;4.278;2022-11-03T06:05:14;100818.38;;;13.87;65.19
37298;BME280;30517;51.932;4.278;2022-11-03T06:08:00;100818.53;;;13.78;65.14
37298;BME280;30517;51.932;4.278;2022-11-03T06:10:47;100811.28;;;13.87;65.25
37298;BME280;30517;51.932;4.278;2022-11-03T06:13:34;100815.78;;;13.84;65.10
37298;BME280;30517;51.932;4.278;2022-11-03T06:16:36;100806.09;;;13.83;65.09
37298;BME280;30517;51.932;4.278;2022-11-03T06:19:25;100784.16;;;13.71;65.44
37298;BME280;30517;51.932;4.278;2022-11-03T06:22:25;100789.41;;;13.75;65.61
37298;BME280;30517;51.932;4.278;2022-11-03T06:25:27;100810.41;;;13.87;65.13
37298;BME280;30517;51.932;4.278;2022-11-03T06:28:24;100772.78;;;13.65;65.51
37298;BME280;30517;51.932;4.278;2022-11-03T06:31:15;100792.72;;;13.87;65.06
37298;BME280;30517;51.932;4.278;2022-11-03T06:33:57;100788.28;;;13.88;65.38
37298;BME280;30517;51.932;4.278;2022-11-03T06:36:38;100783.94;;;13.85;65.16
37298;BME280;30517;51.932;4.278;2022-11-03T06:39:22;100764.66;;;13.76;64.99
37298;BME280;30517;51.932;4.278;2022-11-03T06:42:13;100768.84;;;13.89;65.23
37298;BME280;30517;51.932;4.278;2022-11-03T06:44:54;100764.53;;;13.83;65.23
37298;BME280;30517;51.932;4.278;2022-11-03T06:47:38;100785.56;;;13.94;65.34
37298;BME280;30517;51.932;4.278;2022-11-03T06:50:24;100688.50;;;13.31;65.14
37298;BME280;30517;51.932;4.278;2022-11-03T06:53:08;100759.19;;;13.85;65.18
37298;BME280;30517;51.932;4.278;2022-11-03T06:55:49;100748.63;;;13.83;65.54
37298;BME280;30517;51.932;4.278;2022-11-03T06:58:36;100773.22;;;13.91;65.21
37298;BME280;30517;51.932;4.278;2022-11-03T07:01:21;100766.22;;;13.87;65.15
37298;BME280;30517;51.932;4.278;2022-11-03T07:04:24;100751.28;;;13.83;65.29
37298;BME280;30517;51.932;4.278;2022-11-03T07:07:07;100754.69;;;13.90;65.11
37298;BME280;30517;51.932;4.278;2022-11-03T07:09:48;100757.34;;;13.90;65.27
37298;BME280;30517;51.932;4.278;2022-11-03T07:12:29;100760.91;;;13.89;65.24
37298;BME280;30517;51.932;4.278;2022-11-03T07:15:21;100769.72;;;13.88;65.63
37298;BME280;30517;51.932;4.278;2022-11-03T07:18:09;100766.25;;;13.86;65.57
37298;BME280;30517;51.932;4.278;2022-11-03T07:20:53;100759.09;;;13.91;65.38
37298;BME280;30517;51.932;4.278;2022-11-03T07:23:35;100760.84;;;13.90;65.33
37298;BME280;30517;51.932;4.278;2022-11-03T07:26:16;100745.75;;;13.43;67.25
37298;BME280;30517;51.932;4.278;2022-11-03T07:28:59;100696.50;;;12.66;69.90
37298;BME280;30517;51.932;4.278;2022-11-03T07:31:40;100760.59;;;12.91;71.27
37298;BME280;30517;51.932;4.278;2022-11-03T07:34:23;100755.25;;;12.93;70.96
37298;BME280;30517;51.932;4.278;2022-11-03T07:37:08;100743.84;;;12.88;71.28
37298;BME280;30517;51.932;4.278;2022-11-03T07:39:56;100753.22;;;13.13;70.53
37298;BME280;30517;51.932;4.278;2022-11-03T07:42:38;100753.22;;;13.12;71.38
37298;BME280;30517;51.932;4.278;2022-11-03T07:45:42;100739.06;;;13.14;71.16
37298;BME280;30517;51.932;4.278;2022-11-03T07:51:27;100728.34;;;13.26;70.96
37298;BME280;30517;51.932;4.278;2022-11-03T07:54:19;100721.25;;;13.28;70.99
37298;BME280;30517;51.932;4.278;2022-11-03T07:57:09;100715.97;;;13.27;71.06
37298;BME280;30517;51.932;4.278;2022-11-03T08:00:09;100706.28;;;13.26;71.11
37298;BME280;30517;51.932;4.278;2022-11-03T08:02:59;100696.44;;;13.33;71.06
37298;BME280;30517;51.932;4.278;2022-11-03T08:05:41;100659.44;;;13.28;70.59
37298;BME280;30517;51.932;4.278;2022-11-03T08:08:22;100680.56;;;13.33;70.85
37298;BME280;30517;51.932;4.278;2022-11-03T08:11:03;100681.78;;;13.64;69.77
37298;BME280;30517;51.932;4.278;2022-11-03T08:13:44;100653.91;;;13.91;68.49
37298;BME280;30517;51.932;4.278;2022-11-03T08:16:25;100662.53;;;14.03;67.63
37298;BME280;30517;51.932;4.278;2022-11-03T08:19:06;100649.28;;;14.01;67.11
37298;BME280;30517;51.932;4.278;2022-11-03T08:21:47;100651.91;;;14.03;67.47
37298;BME280;30517;51.932;4.278;2022-11-03T08:24:28;100594.16;;;13.73;67.53
37298;BME280;30517;51.932;4.278;2022-11-03T08:27:08;100645.91;;;13.93;67.83
37298;BME280;30517;51.932;4.278;2022-11-03T08:29:49;100639.59;;;13.99;67.26
37298;BME280;30517;51.932;4.278;2022-11-03T08:32:30;100627.13;;;14.05;67.16
37298;BME280;30517;51.932;4.278;2022-11-03T08:35:11;100636.09;;;13.98;67.31
37298;BME280;30517;51.932;4.278;2022-11-03T08:37:51;100606.13;;;13.94;66.76
37298;BME280;30517;51.932;4.278;2022-11-03T08:40:32;100618.47;;;13.95;67.50
37298;BME280;30517;51.932;4.278;2022-11-03T08:43:13;100607.69;;;14.03;67.01
37298;BME280;30517;51.932;4.278;2022-11-03T08:45:54;100599.75;;;14.03;66.90
37298;BME280;30517;51.932;4.278;2022-11-03T08:48:35;100609.41;;;14.06;66.93
37298;BME280;30517;51.932;4.278;2022-11-03T08:51:16;100602.41;;;14.03;66.82
37298;BME280;30517;51.932;4.278;2022-11-03T08:53:56;100606.75;;;14.07;66.70
37298;BME280;30517;51.932;4.278;2022-11-03T08:56:37;100597.91;;;14.07;66.75
37298;BME280;30517;51.932;4.278;2022-11-03T08:59:18;100573.44;;;13.94;66.68
37298;BME280;30517;51.932;4.278;2022-11-03T09:01:59;100603.97;;;14.12;66.64
37298;BME280;30517;51.932;4.278;2022-11-03T09:04:39;100579.28;;;14.10;66.58
37298;BME280;30517;51.932;4.278;2022-11-03T09:07:20;100564.41;;;14.01;66.61
37298;BME280;30517;51.932;4.278;2022-11-03T09:10:01;100560.88;;;14.02;66.68
37298;BME280;30517;51.932;4.278;2022-11-03T09:12:42;100590.56;;;14.20;66.36
37298;BME280;30517;51.932;4.278;2022-11-03T09:15:22;100579.16;;;14.16;66.40
37298;BME280;30517;51.932;4.278;2022-11-03T09:18:03;100570.31;;;14.15;66.24
37298;BME280;30517;51.932;4.278;2022-11-03T09:20:44;100573.91;;;14.13;66.78
37298;BME280;30517;51.932;4.278;2022-11-03T09:23:25;100561.59;;;14.10;66.65
37298;BME280;30517;51.932;4.278;2022-11-03T09:26:06;100538.88;;;13.97;66.59
37298;BME280;30517;51.932;4.278;2022-11-03T09:28:47;100560.53;;;14.17;66.33
37298;BME280;30517;51.932;4.278;2022-11-03T09:31:28;100563.03;;;14.25;66.32
37298;BME280;30517;51.932;4.278;2022-11-03T09:34:09;100555.19;;;14.21;66.37
37298;BME280;30517;51.932;4.278;2022-11-03T09:36:50;100537.44;;;14.23;66.20
37298;BME280;30517;51.932;4.278;2022-11-03T09:39:31;100540.06;;;14.26;65.80
37298;BME280;30517;51.932;4.278;2022-11-03T09:42:12;100529.47;;;14.24;66.23
37298;BME280;30517;51.932;4.278;2022-11-03T09:44:53;100524.19;;;14.23;66.06
37298;BME280;30517;51.932;4.278;2022-11-03T09:47:36;100524.94;;;14.29;66.09
37298;BME280;30517;51.932;4.278;2022-11-03T09:50:19;100519.72;;;14.25;66.66
37298;BME280;30517;51.932;4.278;2022-11-03T09:53:00;100482.13;;;14.06;66.20
37298;BME280;30517;51.932;4.278;2022-11-03T09:55:41;100509.97;;;14.25;66.21
37298;BME280;30517;51.932;4.278;2022-11-03T09:58:22;100485.31;;;14.22;66.42
37298;BME280;30517;51.932;4.278;2022-11-03T10:01:03;100475.47;;;14.27;66.31
37298;BME280;30517;51.932;4.278;2022-11-03T10:03:44;100475.53;;;14.24;66.64
37298;BME280;30517;51.932;4.278;2022-11-03T10:06:24;100471.09;;;14.24;66.39
37298;BME280;30517;51.932;4.278;2022-11-03T10:09:11;100477.19;;;14.28;66.48
37298;BME280;30517;51.932;4.278;2022-11-03T10:11:54;100478.88;;;14.32;66.23
37298;BME280;30517;51.932;4.278;2022-11-03T10:14:35;100465.72;;;14.27;66.50
37298;BME280;30517;51.932;4.278;2022-11-03T10:17:20;100474.59;;;14.26;66.64
37298;BME280;30517;51.932;4.278;2022-11-03T10:20:01;100465.56;;;14.33;66.27
37298;BME280;30517;51.932;4.278;2022-11-03T10:22:43;100455.84;;;14.34;66.27
37298;BME280;30517;51.932;4.278;2022-11-03T10:25:28;100460.34;;;14.30;66.45
37298;BME280;30517;51.932;4.278;2022-11-03T10:31:04;100447.94;;;14.31;66.25
37298;BME280;30517;51.932;4.278;2022-11-03T10:33:51;100453.94;;;14.39;65.99
37298;BME280;30517;51.932;4.278;2022-11-03T10:36:33;100452.13;;;14.41;66.25
37298;BME280;30517;51.932;4.278;2022-11-03T10:39:28;100441.44;;;14.44;66.15
37298;BME280;30517;51.932;4.278;2022-11-03T10:45:15;100431.63;;;14.48;66.00
37298;BME280;30517;51.932;4.278;2022-11-03T10:48:01;100428.06;;;14.47;65.83
37298;BME280;30517;51.932;4.278;2022-11-03T10:50:44;100430.72;;;14.47;66.05
37298;BME280;30517;51.932;4.278;2022-11-03T10:53:24;100429.94;;;14.44;66.14
37298;BME280;30517;51.932;4.278;2022-11-03T10:56:06;100431.63;;;14.48;65.71
37298;BME280;30517;51.932;4.278;2022-11-03T10:58:47;100410.59;;;14.38;66.08
37298;BME280;30517;51.932;4.278;2022-11-03T11:01:28;100426.31;;;14.48;65.94
37298;BME280;30517;51.932;4.278;2022-11-03T11:04:14;100388.88;;;14.24;66.00
37298;BME280;30517;51.932;4.278;2022-11-03T11:06:55;100409.50;;;14.47;65.79
37298;BME280;30517;51.932;4.278;2022-11-03T11:09:35;100417.31;;;14.55;66.07
37298;BME280;30517;51.932;4.278;2022-11-03T11:12:21;100402.63;;;14.40;66.63
37298;BME280;30517;51.932;4.278;2022-11-03T11:24:09;100354.28;;;14.63;65.66
37298;BME280;30517;51.932;4.278;2022-11-03T11:26:50;100359.50;;;14.66;65.41
37298;BME280;30517;51.932;4.278;2022-11-03T11:38:51;100322.56;;;14.58;65.41
37298;BME280;30517;51.932;4.278;2022-11-03T11:44:48;100307.22;;;14.70;65.36
37298;BME280;30517;51.932;4.278;2022-11-03T11:50:25;100281.00;;;14.57;65.60
37298;BME280;30517;51.932;4.278;2022-11-03T11:53:13;100291.19;;;14.73;65.78
37298;BME280;30517;51.932;4.278;2022-11-03T11:56:00;100283.97;;;14.78;65.40
37298;BME280;30517;51.932;4.278;2022-11-03T11:58:52;100275.25;;;14.74;65.66
37298;BME280;30517;51.932;4.278;2022-11-03T12:01:35;100257.63;;;14.72;65.53
37298;BME280;30517;51.932;4.278;2022-11-03T12:04:19;100279.56;;;14.77;65.65
37298;BME280;30517;51.932;4.278;2022-11-03T12:07:01;100282.47;;;14.69;65.50
37298;BME280;30517;51.932;4.278;2022-11-03T12:09:42;100276.09;;;14.75;65.60
37298;BME280;30517;51.932;4.278;2022-11-03T12:12:33;100264.75;;;14.70;65.72
37298;BME280;30517;51.932;4.278;2022-11-03T12:18:38;100244.94;;;14.81;65.57
37298;BME280;30517;51.932;4.278;2022-11-03T12:21:45;100252.53;;;14.63;66.16
37298;BME280;30517;51.932;4.278;2022-11-03T12:30:18;100233.34;;;14.84;65.22
37298;BME280;30517;51.932;4.278;2022-11-03T12:32:59;100219.75;;;14.95;65.34
37298;BME280;30517;51.932;4.278;2022-11-03T12:35:39;100214.31;;;14.99;65.20
37298;BME280;30517;51.932;4.278;2022-11-03T12:38:21;100203.78;;;14.96;65.37
37298;BME280;30517;51.932;4.278;2022-11-03T12:41:02;100200.97;;;15.01;65.31
37298;BME280;30517;51.932;4.278;2022-11-03T12:44:01;100195.72;;;14.99;65.28
37298;BME280;30517;51.932;4.278;2022-11-03T12:46:41;100203.59;;;15.02;65.34
37298;BME280;30517;51.932;4.278;2022-11-03T12:49:22;100193.78;;;15.04;65.36
37298;BME280;30517;51.932;4.278;2022-11-03T12:52:03;100174.56;;;14.96;65.17
37298;BME280;30517;51.932;4.278;2022-11-03T12:54:46;100178.66;;;15.07;65.14
37298;BME280;30517;51.932;4.278;2022-11-03T12:57:27;100168.13;;;15.03;65.41
37298;BME280;30517;51.932;4.278;2022-11-03T13:00:08;100155.06;;;14.97;65.23
37298;BME280;30517;51.932;4.278;2022-11-03T13:02:49;100154.06;;;15.01;64.71
37298;BME280;30517;51.932;4.278;2022-11-03T13:05:30;100146.78;;;15.07;65.35
37298;BME280;30517;51.932;4.278;2022-11-03T13:08:11;100140.47;;;15.11;64.99
37298;BME280;30517;51.932;4.278;2022-11-03T13:10:51;100127.44;;;15.03;65.21
37298;BME280;30517;51.932;4.278;2022-11-03T13:13:32;100128.16;;;15.08;64.71
37298;BME280;30517;51.932;4.278;2022-11-03T13:16:13;100103.63;;;15.00;65.05
37298;BME280;30517;51.932;4.278;2022-11-03T13:18:54;100097.34;;;15.02;64.81
37298;BME280;30517;51.932;4.278;2022-11-03T13:21:35;100104.25;;;15.08;64.87
37298;BME280;30517;51.932;4.278;2022-11-03T13:24:16;100117.19;;;15.19;65.23
37298;BME280;30517;51.932;4.278;2022-11-03T13:26:57;100114.56;;;15.17;65.39
37298;BME280;30517;51.932;4.278;2022-11-03T13:29:38;100076.34;;;14.95;65.15
37298;BME280;30517;51.932;4.278;2022-11-03T13:32:19;100107.38;;;15.21;64.91
37298;BME280;30517;51.932;4.278;2022-11-03T13:34:59;100119.81;;;15.20;65.13
37298;BME280;30517;51.932;4.278;2022-11-03T13:37:41;100112.00;;;15.14;64.84
37298;BME280;30517;51.932;4.278;2022-11-03T13:40:21;100099.34;;;15.22;64.81
37298;BME280;30517;51.932;4.278;2022-11-03T13:43:02;100070.47;;;15.12;65.10
37298;BME280;30517;51.932;4.278;2022-11-03T13:45:43;100098.34;;;15.26;64.92
37298;BME280;30517;51.932;4.278;2022-11-03T13:48:24;100084.34;;;15.21;65.01
37298;BME280;30517;51.932;4.278;2022-11-03T13:51:05;100044.13;;;15.05;64.80
37298;BME280;30517;51.932;4.278;2022-11-03T13:53:46;100074.44;;;15.26;64.84
37298;BME280;30517;51.932;4.278;2022-11-03T13:56:27;100076.16;;;15.27;65.09
37298;BME280;30517;51.932;4.278;2022-11-03T13:59:07;100065.47;;;15.29;65.02
37298;BME280;30517;51.932;4.278;2022-11-03T14:01:48;100070.69;;;15.32;65.03
37298;BME280;30517;51.932;4.278;2022-11-03T14:04:29;100054.06;;;15.25;64.82
37298;BME280;30517;51.932;4.278;2022-11-03T14:07:10;100041.72;;;15.24;64.87
37298;BME280;30517;51.932;4.278;2022-11-03T14:09:50;100047.63;;;15.33;64.92
37298;BME280;30517;51.932;4.278;2022-11-03T14:12:31;100040.16;;;15.19;65.07
37298;BME280;30517;51.932;4.278;2022-11-03T14:15:13;99997.97;;;14.83;64.21
37298;BME280;30517;51.932;4.278;2022-11-03T14:17:54;100013.28;;;14.75;64.20
37298;BME280;30517;51.932;4.278;2022-11-03T14:20:35;100002.50;;;15.06;63.46
37298;BME280;30517;51.932;4.278;2022-11-03T14:23:16;100004.63;;;14.96;63.68
37298;BME280;30517;51.932;4.278;2022-11-03T14:25:57;99997.13;;;14.82;63.65
37298;BME280;30517;51.932;4.278;2022-11-03T14:28:38;99999.38;;;15.20;63.21
37298;BME280;30517;51.932;4.278;2022-11-03T14:31:18;99999.91;;;15.30;63.16
37298;BME280;30517;51.932;4.278;2022-11-03T14:33:59;99958.06;;;15.11;63.41
37298;BME280;30517;51.932;4.278;2022-11-03T14:36:40;99970.06;;;15.23;63.45
37298;BME280;30517;51.932;4.278;2022-11-03T14:39:21;99970.66;;;15.31;63.27
37298;BME280;30517;51.932;4.278;2022-11-03T14:42:07;99999.31;;;15.46;63.67
37298;BME280;30517;51.932;4.278;2022-11-03T14:44:50;99997.47;;;15.48;63.42
37298;BME280;30517;51.932;4.278;2022-11-03T14:47:31;99972.84;;;15.43;63.79
37298;BME280;30517;51.932;4.278;2022-11-03T14:50:12;99954.97;;;15.48;63.75
37298;BME280;30517;51.932;4.278;2022-11-03T14:52:53;99957.50;;;15.52;63.77
37298;BME280;30517;51.932;4.278;2022-11-03T14:55:34;99929.75;;;15.35;63.91
37298;BME280;30517;51.932;4.278;2022-11-03T14:58:14;99954.97;;;15.48;63.66
37298;BME280;30517;51.932;4.278;2022-11-03T15:00:55;99928.81;;;15.36;63.50
37298;BME280;30517;51.932;4.278;2022-11-03T15:03:36;99941.50;;;15.53;63.79
37298;BME280;30517;51.932;4.278;2022-11-03T15:06:17;99948.53;;;15.54;63.87
37298;BME280;30517;51.932;4.278;2022-11-03T15:08:59;99934.69;;;15.46;63.93
37298;BME280;30517;51.932;4.278;2022-11-03T15:11:40;99943.22;;;15.54;63.64